sensor_id;sensor_type;location;lat;lon;timestamp;temperature;humidity
21318;DHT22;10818;50.830;6.524;2023-08-08T00:02:02;14.70;99.90
21318;DHT22;10818;50.830;6.524;2023-08-08T00:07:02;14.70;99.90
21318;DHT22;10818;50.830;6.524;2023-08-08T00:12:03;14.60;99.90
21318;DHT22;10818;50.830;6.524;2023-08-08T00:17:03;14.60;99.90
21318;DHT22;10818;50.830;6.524;2023-08-08T00:22:04;14.60;99.90
21318;DHT22;10818;50.830;6.524;2023-08-08T00:27:04;14.70;99.90
21318;DHT22;10818;50.830;6.524;2023-08-08T00:32:05;14.70;99.90
21318;DHT22;10818;50.830;6.524;2023-08-08T00:37:05;14.70;99.90
21318;DHT22;10818;50.830;6.524;2023-08-08T00:42:06;14.70;99.90
21318;DHT22;10818;50.830;6.524;2023-08-08T00:47:07;14.60;99.90
21318;DHT22;10818;50.830;6.524;2023-08-08T00:52:08;14.60;99.90
21318;DHT22;10818;50.830;6.524;2023-08-08T00:57:08;14.60;99.90
21318;DHT22;10818;50.830;6.524;2023-08-08T01:02:09;14.60;99.90
21318;DHT22;10818;50.830;6.524;2023-08-08T01:12:23;14.50;99.90
21318;DHT22;10818;50.830;6.524;2023-08-08T01:17:24;14.50;99.90
21318;DHT22;10818;50.830;6.524;2023-08-08T01:22:27;14.50;99.90
21318;DHT22;10818;50.830;6.524;2023-08-08T01:27:29;14.30;99.90
21318;DHT22;10818;50.830;6.524;2023-08-08T01:32:30;14.40;99.90
21318;DHT22;10818;50.830;6.524;2023-08-08T01:37:39;14.40;99.90
21318;DHT22;10818;50.830;6.524;2023-08-08T01:42:41;14.50;99.90
21318;DHT22;10818;50.830;6.524;2023-08-08T01:47:49;14.40;99.90
21318;DHT22;10818;50.830;6.524;2023-08-08T01:52:49;14.40;99.90
21318;DHT22;10818;50.830;6.524;2023-08-08T01:57:50;14.30;99.90
21318;DHT22;10818;50.830;6.524;2023-08-08T02:02:50;14.30;99.90
21318;DHT22;10818;50.830;6.524;2023-08-08T02:07:51;14.30;99.90
21318;DHT22;10818;50.830;6.524;2023-08-08T02:12:51;14.20;99.90
21318;DHT22;10818;50.830;6.524;2023-08-08T02:17:52;14.30;99.90
21318;DHT22;10818;50.830;6.524;2023-08-08T02:22:52;14.30;99.90
21318;DHT22;10818;50.830;6.524;2023-08-08T02:27:53;14.20;99.90
21318;DHT22;10818;50.830;6.524;2023-08-08T02:32:53;14.20;99.90
21318;DHT22;10818;50.830;6.524;2023-08-08T02:37:54;14.20;99.90
21318;DHT22;10818;50.830;6.524;2023-08-08T02:42:54;14.20;99.90
21318;DHT22;10818;50.830;6.524;2023-08-08T02:47:54;14.10;99.90
21318;DHT22;10818;50.830;6.524;2023-08-08T02:52:55;14.10;99.90
21318;DHT22;10818;50.830;6.524;2023-08-08T02:57:56;14.10;99.90
21318;DHT22;10818;50.830;6.524;2023-08-08T03:02:56;14.00;99.90
21318;DHT22;10818;50.830;6.524;2023-08-08T03:07:57;14.10;99.90
21318;DHT22;10818;50.830;6.524;2023-08-08T03:12:59;14.00;99.90
21318;DHT22;10818;50.830;6.524;2023-08-08T03:17:59;14.00;99.90
21318;DHT22;10818;50.830;6.524;2023-08-08T03:23:00;14.00;99.90
21318;DHT22;10818;50.830;6.524;2023-08-08T03:28:00;14.00;99.90
21318;DHT22;10818;50.830;6.524;2023-08-08T03:33:01;14.00;99.90
21318;DHT22;10818;50.830;6.524;2023-08-08T03:38:01;13.90;99.90
21318;DHT22;10818;50.830;6.524;2023-08-08T03:43:03;14.10;99.90
21318;DHT22;10818;50.830;6.524;2023-08-08T03:48:03;14.00;99.90
21318;DHT22;10818;50.830;6.524;2023-08-08T03:53:04;13.90;99.90
21318;DHT22;10818;50.830;6.524;2023-08-08T03:58:05;14.00;99.90
21318;DHT22;10818;50.830;6.524;2023-08-08T04:03:08;13.90;99.90
21318;DHT22;10818;50.830;6.524;2023-08-08T04:08:08;13.90;99.90
21318;DHT22;10818;50.830;6.524;2023-08-08T04:13:09;14.00;99.90
21318;DHT22;10818;50.830;6.524;2023-08-08T04:18:10;14.10;99.90
21318;DHT22;10818;50.830;6.524;2023-08-08T04:23:10;14.10;99.90
21318;DHT22;10818;50.830;6.524;2023-08-08T04:28:11;14.20;99.90
21318;DHT22;10818;50.830;6.524;2023-08-08T04:33:11;14.30;99.90
21318;DHT22;10818;50.830;6.524;2023-08-08T04:43:13;14.30;99.90
21318;DHT22;10818;50.830;6.524;2023-08-08T04:48:14;14.50;99.90
21318;DHT22;10818;50.830;6.524;2023-08-08T04:53:14;14.50;99.90
21318;DHT22;10818;50.830;6.524;2023-08-08T04:58:14;14.80;99.90
21318;DHT22;10818;50.830;6.524;2023-08-08T05:03:15;15.00;99.90
21318;DHT22;10818;50.830;6.524;2023-08-08T05:08:16;15.20;99.90
21318;DHT22;10818;50.830;6.524;2023-08-08T05:13:16;15.40;99.90
21318;DHT22;10818;50.830;6.524;2023-08-08T05:18:17;15.70;99.90
21318;DHT22;10818;50.830;6.524;2023-08-08T05:23:17;15.90;99.90
21318;DHT22;10818;50.830;6.524;2023-08-08T05:28:18;15.90;99.90
21318;DHT22;10818;50.830;6.524;2023-08-08T05:33:18;16.20;99.90
21318;DHT22;10818;50.830;6.524;2023-08-08T05:38:19;16.70;99.90
21318;DHT22;10818;50.830;6.524;2023-08-08T05:43:19;16.80;99.90
21318;DHT22;10818;50.830;6.524;2023-08-08T05:48:21;17.10;99.90
21318;DHT22;10818;50.830;6.524;2023-08-08T05:53:22;17.30;99.90
21318;DHT22;10818;50.830;6.524;2023-08-08T05:58:22;17.50;99.90
21318;DHT22;10818;50.830;6.524;2023-08-08T06:03:23;17.70;99.90
21318;DHT22;10818;50.830;6.524;2023-08-08T06:08:23;17.70;99.90
21318;DHT22;10818;50.830;6.524;2023-08-08T06:13:24;17.80;99.90
21318;DHT22;10818;50.830;6.524;2023-08-08T06:18:24;17.70;99.90
21318;DHT22;10818;50.830;6.524;2023-08-08T06:23:25;17.90;99.90
21318;DHT22;10818;50.830;6.524;2023-08-08T06:28:25;18.20;99.90
21318;DHT22;10818;50.830;6.524;2023-08-08T06:33:26;18.40;99.90
21318;DHT22;10818;50.830;6.524;2023-08-08T06:38:26;18.60;99.90
21318;DHT22;10818;50.830;6.524;2023-08-08T06:43:27;18.50;99.90
21318;DHT22;10818;50.830;6.524;2023-08-08T06:48:27;18.70;99.90
21318;DHT22;10818;50.830;6.524;2023-08-08T06:53:28;19.10;99.90
21318;DHT22;10818;50.830;6.524;2023-08-08T06:58:28;20.40;99.90
21318;DHT22;10818;50.830;6.524;2023-08-08T07:03:28;19.90;99.90
21318;DHT22;10818;50.830;6.524;2023-08-08T07:08:29;21.10;99.90
21318;DHT22;10818;50.830;6.524;2023-08-08T07:13:29;25.30;99.90
21318;DHT22;10818;50.830;6.524;2023-08-08T07:18:30;26.80;99.90
21318;DHT22;10818;50.830;6.524;2023-08-08T07:23:30;25.80;99.90
21318;DHT22;10818;50.830;6.524;2023-08-08T07:28:31;29.20;99.90
21318;DHT22;10818;50.830;6.524;2023-08-08T07:33:32;27.50;99.90
21318;DHT22;10818;50.830;6.524;2023-08-08T07:38:32;28.90;98.60
21318;DHT22;10818;50.830;6.524;2023-08-08T07:43:33;30.50;96.50
21318;DHT22;10818;50.830;6.524;2023-08-08T07:48:34;33.20;90.40
21318;DHT22;10818;50.830;6.524;2023-08-08T07:53:34;33.20;84.50
21318;DHT22;10818;50.830;6.524;2023-08-08T07:58:35;33.90;80.50
21318;DHT22;10818;50.830;6.524;2023-08-08T08:03:35;29.30;90.40
21318;DHT22;10818;50.830;6.524;2023-08-08T08:08:35;26.80;94.90
21318;DHT22;10818;50.830;6.524;2023-08-08T08:13:36;27.20;96.10
21318;DHT22;10818;50.830;6.524;2023-08-08T08:18:37;30.10;90.70
21318;DHT22;10818;50.830;6.524;2023-08-08T08:23:37;32.00;88.30
21318;DHT22;10818;50.830;6.524;2023-08-08T08:28:38;32.90;82.60
21318;DHT22;10818;50.830;6.524;2023-08-08T08:33:40;32.00;83.00
21318;DHT22;10818;50.830;6.524;2023-08-08T08:38:40;31.10;83.50
21318;DHT22;10818;50.830;6.524;2023-08-08T08:43:41;28.60;87.40
21318;DHT22;10818;50.830;6.524;2023-08-08T08:48:41;26.10;93.10
21318;DHT22;10818;50.830;6.524;2023-08-08T08:53:42;24.50;97.30
21318;DHT22;10818;50.830;6.524;2023-08-08T08:58:46;23.70;99.70
21318;DHT22;10818;50.830;6.524;2023-08-08T09:03:47;23.50;99.90
21318;DHT22;10818;50.830;6.524;2023-08-08T09:08:47;23.70;99.90
21318;DHT22;10818;50.830;6.524;2023-08-08T09:13:48;24.00;99.90
21318;DHT22;10818;50.830;6.524;2023-08-08T09:18:48;24.90;99.90
21318;DHT22;10818;50.830;6.524;2023-08-08T09:23:49;24.70;99.90
21318;DHT22;10818;50.830;6.524;2023-08-08T09:28:50;23.90;99.90
21318;DHT22;10818;50.830;6.524;2023-08-08T09:33:50;23.40;99.90
21318;DHT22;10818;50.830;6.524;2023-08-08T09:38:52;23.30;99.90
21318;DHT22;10818;50.830;6.524;2023-08-08T09:43:53;23.20;99.90
21318;DHT22;10818;50.830;6.524;2023-08-08T09:48:54;23.10;99.90
21318;DHT22;10818;50.830;6.524;2023-08-08T09:53:55;23.10;99.90
21318;DHT22;10818;50.830;6.524;2023-08-08T09:58:56;23.10;99.90
21318;DHT22;10818;50.830;6.524;2023-08-08T10:03:57;23.20;99.90
21318;DHT22;10818;50.830;6.524;2023-08-08T10:08:58;23.60;99.90
21318;DHT22;10818;50.830;6.524;2023-08-08T10:14:01;23.50;99.90
21318;DHT22;10818;50.830;6.524;2023-08-08T10:19:02;23.00;99.90
21318;DHT22;10818;50.830;6.524;2023-08-08T10:29:03;24.00;99.90
21318;DHT22;10818;50.830;6.524;2023-08-08T10:34:04;23.90;99.90
21318;DHT22;10818;50.830;6.524;2023-08-08T10:39:05;24.00;99.90
21318;DHT22;10818;50.830;6.524;2023-08-08T10:44:10;24.20;99.90
21318;DHT22;10818;50.830;6.524;2023-08-08T10:49:11;23.90;99.90
21318;DHT22;10818;50.830;6.524;2023-08-08T10:54:19;24.30;99.90
21318;DHT22;10818;50.830;6.524;2023-08-08T10:59:26;24.70;99.90
21318;DHT22;10818;50.830;6.524;2023-08-08T11:04:27;25.10;99.00
21318;DHT22;10818;50.830;6.524;2023-08-08T11:09:29;24.80;99.20
21318;DHT22;10818;50.830;6.524;2023-08-08T11:14:30;23.90;99.90
21318;DHT22;10818;50.830;6.524;2023-08-08T11:19:30;24.20;99.90
21318;DHT22;10818;50.830;6.524;2023-08-08T11:24:34;24.20;99.90
21318;DHT22;10818;50.830;6.524;2023-08-08T11:29:35;23.50;99.90
21318;DHT22;10818;50.830;6.524;2023-08-08T11:34:35;23.10;99.90
21318;DHT22;10818;50.830;6.524;2023-08-08T11:39:36;22.60;99.90
21318;DHT22;10818;50.830;6.524;2023-08-08T11:44:37;22.60;99.90
21318;DHT22;10818;50.830;6.524;2023-08-08T11:49:41;22.90;99.90
21318;DHT22;10818;50.830;6.524;2023-08-08T11:54:42;23.00;99.90
21318;DHT22;10818;50.830;6.524;2023-08-08T11:59:42;23.20;99.90
21318;DHT22;10818;50.830;6.524;2023-08-08T12:04:43;23.00;99.90
21318;DHT22;10818;50.830;6.524;2023-08-08T12:09:46;22.90;99.90
21318;DHT22;10818;50.830;6.524;2023-08-08T12:14:47;23.20;99.90
21318;DHT22;10818;50.830;6.524;2023-08-08T12:19:47;23.20;99.90
21318;DHT22;10818;50.830;6.524;2023-08-08T12:24:48;22.40;99.90
21318;DHT22;10818;50.830;6.524;2023-08-08T12:29:49;22.00;99.90
21318;DHT22;10818;50.830;6.524;2023-08-08T12:34:49;22.00;99.90
21318;DHT22;10818;50.830;6.524;2023-08-08T12:39:50;22.10;99.90
21318;DHT22;10818;50.830;6.524;2023-08-08T12:44:51;22.10;99.90
21318;DHT22;10818;50.830;6.524;2023-08-08T12:49:51;22.10;99.90
21318;DHT22;10818;50.830;6.524;2023-08-08T12:54:52;21.90;99.90
21318;DHT22;10818;50.830;6.524;2023-08-08T12:59:52;21.90;99.90
21318;DHT22;10818;50.830;6.524;2023-08-08T13:04:53;22.10;99.90
21318;DHT22;10818;50.830;6.524;2023-08-08T13:09:53;22.20;99.90
21318;DHT22;10818;50.830;6.524;2023-08-08T13:14:54;22.00;99.90
21318;DHT22;10818;50.830;6.524;2023-08-08T13:19:54;21.80;99.90
21318;DHT22;10818;50.830;6.524;2023-08-08T13:24:54;21.50;99.90
21318;DHT22;10818;50.830;6.524;2023-08-08T13:29:55;21.70;99.90
21318;DHT22;10818;50.830;6.524;2023-08-08T13:34:55;21.90;99.90
21318;DHT22;10818;50.830;6.524;2023-08-08T13:39:56;22.40;99.90
21318;DHT22;10818;50.830;6.524;2023-08-08T13:44:56;22.60;99.90
21318;DHT22;10818;50.830;6.524;2023-08-08T13:49:57;21.90;99.90
21318;DHT22;10818;50.830;6.524;2023-08-08T13:54:57;21.50;99.90
21318;DHT22;10818;50.830;6.524;2023-08-08T13:59:58;21.20;99.90
21318;DHT22;10818;50.830;6.524;2023-08-08T14:04:58;21.20;99.90
21318;DHT22;10818;50.830;6.524;2023-08-08T14:09:59;21.30;99.90
21318;DHT22;10818;50.830;6.524;2023-08-08T14:14:59;21.80;99.90
21318;DHT22;10818;50.830;6.524;2023-08-08T14:20:00;22.30;99.90
21318;DHT22;10818;50.830;6.524;2023-08-08T14:25:01;22.50;99.90
21318;DHT22;10818;50.830;6.524;2023-08-08T14:30:02;22.90;99.90
21318;DHT22;10818;50.830;6.524;2023-08-08T14:35:04;22.70;99.90
21318;DHT22;10818;50.830;6.524;2023-08-08T14:40:05;22.40;99.90
21318;DHT22;10818;50.830;6.524;2023-08-08T14:45:06;22.40;99.90
21318;DHT22;10818;50.830;6.524;2023-08-08T14:50:06;22.40;99.90
21318;DHT22;10818;50.830;6.524;2023-08-08T14:55:08;22.70;99.90
21318;DHT22;10818;50.830;6.524;2023-08-08T15:00:09;22.80;99.90
21318;DHT22;10818;50.830;6.524;2023-08-08T15:05:09;22.40;99.90
21318;DHT22;10818;50.830;6.524;2023-08-08T15:10:11;22.40;99.90
21318;DHT22;10818;50.830;6.524;2023-08-08T15:15:12;22.00;99.90
21318;DHT22;10818;50.830;6.524;2023-08-08T15:20:12;22.30;99.90
21318;DHT22;10818;50.830;6.524;2023-08-08T15:25:13;22.10;99.90
21318;DHT22;10818;50.830;6.524;2023-08-08T15:30:13;22.10;99.90
21318;DHT22;10818;50.830;6.524;2023-08-08T15:35:14;22.30;99.90
21318;DHT22;10818;50.830;6.524;2023-08-08T15:40:14;22.10;99.90
21318;DHT22;10818;50.830;6.524;2023-08-08T15:45:15;21.80;99.90
21318;DHT22;10818;50.830;6.524;2023-08-08T15:50:15;21.30;99.90
21318;DHT22;10818;50.830;6.524;2023-08-08T15:55:16;21.60;99.90
21318;DHT22;10818;50.830;6.524;2023-08-08T16:00:16;21.50;99.90
21318;DHT22;10818;50.830;6.524;2023-08-08T16:05:17;21.50;99.90
21318;DHT22;10818;50.830;6.524;2023-08-08T16:10:17;21.40;99.90
21318;DHT22;10818;50.830;6.524;2023-08-08T16:15:18;21.50;99.90
21318;DHT22;10818;50.830;6.524;2023-08-08T16:20:18;21.70;99.90
21318;DHT22;10818;50.830;6.524;2023-08-08T16:25:19;21.80;99.90
21318;DHT22;10818;50.830;6.524;2023-08-08T16:30:19;21.20;99.90
21318;DHT22;10818;50.830;6.524;2023-08-08T16:35:20;20.90;99.90
21318;DHT22;10818;50.830;6.524;2023-08-08T16:40:20;21.00;99.90
21318;DHT22;10818;50.830;6.524;2023-08-08T16:45:21;20.90;99.90
21318;DHT22;10818;50.830;6.524;2023-08-08T16:50:21;21.00;99.90
21318;DHT22;10818;50.830;6.524;2023-08-08T16:55:24;21.30;99.90
21318;DHT22;10818;50.830;6.524;2023-08-08T17:00:25;21.40;99.90
21318;DHT22;10818;50.830;6.524;2023-08-08T17:05:25;21.40;99.90
21318;DHT22;10818;50.830;6.524;2023-08-08T17:10:25;21.20;99.90
21318;DHT22;10818;50.830;6.524;2023-08-08T17:15:26;21.10;99.90
21318;DHT22;10818;50.830;6.524;2023-08-08T17:20:26;21.00;99.90
21318;DHT22;10818;50.830;6.524;2023-08-08T17:25:27;21.30;99.90
21318;DHT22;10818;50.830;6.524;2023-08-08T17:30:27;21.10;99.90
21318;DHT22;10818;50.830;6.524;2023-08-08T17:35:28;20.70;99.90
21318;DHT22;10818;50.830;6.524;2023-08-08T17:40:29;20.10;99.90
21318;DHT22;10818;50.830;6.524;2023-08-08T17:45:29;19.90;99.90
21318;DHT22;10818;50.830;6.524;2023-08-08T17:50:30;19.80;99.90
21318;DHT22;10818;50.830;6.524;2023-08-08T17:55:30;19.70;99.90
21318;DHT22;10818;50.830;6.524;2023-08-08T18:00:31;19.80;99.90
21318;DHT22;10818;50.830;6.524;2023-08-08T18:05:32;19.80;99.90
21318;DHT22;10818;50.830;6.524;2023-08-08T18:10:32;19.70;99.90
21318;DHT22;10818;50.830;6.524;2023-08-08T18:15:35;19.40;99.90
21318;DHT22;10818;50.830;6.524;2023-08-08T18:20:36;19.40;99.90
21318;DHT22;10818;50.830;6.524;2023-08-08T18:25:37;19.40;99.90
21318;DHT22;10818;50.830;6.524;2023-08-08T18:30:39;19.40;99.90
21318;DHT22;10818;50.830;6.524;2023-08-08T18:35:40;19.20;99.90
21318;DHT22;10818;50.830;6.524;2023-08-08T18:40:40;19.20;99.90
21318;DHT22;10818;50.830;6.524;2023-08-08T18:45:41;19.20;99.90
21318;DHT22;10818;50.830;6.524;2023-08-08T18:50:41;19.20;99.90
21318;DHT22;10818;50.830;6.524;2023-08-08T18:55:42;19.10;99.90
21318;DHT22;10818;50.830;6.524;2023-08-08T19:00:45;19.00;99.90
21318;DHT22;10818;50.830;6.524;2023-08-08T19:05:46;18.80;99.90
21318;DHT22;10818;50.830;6.524;2023-08-08T19:10:46;18.80;99.90
21318;DHT22;10818;50.830;6.524;2023-08-08T19:15:47;18.70;99.90
21318;DHT22;10818;50.830;6.524;2023-08-08T19:20:47;18.40;99.90
21318;DHT22;10818;50.830;6.524;2023-08-08T19:25:48;18.20;99.90
21318;DHT22;10818;50.830;6.524;2023-08-08T19:30:49;17.90;99.90
21318;DHT22;10818;50.830;6.524;2023-08-08T19:35:50;17.80;99.90
21318;DHT22;10818;50.830;6.524;2023-08-08T19:40:50;17.80;99.90
21318;DHT22;10818;50.830;6.524;2023-08-08T19:45:51;17.60;99.90
21318;DHT22;10818;50.830;6.524;2023-08-08T19:50:54;17.60;99.90
21318;DHT22;10818;50.830;6.524;2023-08-08T19:55:55;17.50;99.90
21318;DHT22;10818;50.830;6.524;2023-08-08T20:00:58;17.40;99.90
21318;DHT22;10818;50.830;6.524;2023-08-08T20:05:58;17.40;99.90
21318;DHT22;10818;50.830;6.524;2023-08-08T20:10:59;17.40;99.90
21318;DHT22;10818;50.830;6.524;2023-08-08T20:16:00;17.40;99.90
21318;DHT22;10818;50.830;6.524;2023-08-08T20:21:00;17.40;99.90
21318;DHT22;10818;50.830;6.524;2023-08-08T20:26:01;17.30;99.90
21318;DHT22;10818;50.830;6.524;2023-08-08T20:31:02;17.30;99.90
21318;DHT22;10818;50.830;6.524;2023-08-08T20:36:03;17.20;99.90
21318;DHT22;10818;50.830;6.524;2023-08-08T20:41:03;17.20;99.90
21318;DHT22;10818;50.830;6.524;2023-08-08T20:46:04;17.20;99.90
21318;DHT22;10818;50.830;6.524;2023-08-08T20:51:04;17.30;99.90
21318;DHT22;10818;50.830;6.524;2023-08-08T20:56:05;17.30;99.90
21318;DHT22;10818;50.830;6.524;2023-08-08T21:01:05;17.30;99.90
21318;DHT22;10818;50.830;6.524;2023-08-08T21:06:06;17.20;99.90
21318;DHT22;10818;50.830;6.524;2023-08-08T21:11:06;17.30;99.90
21318;DHT22;10818;50.830;6.524;2023-08-08T21:16:07;17.30;99.90
21318;DHT22;10818;50.830;6.524;2023-08-08T21:21:07;17.40;99.90
21318;DHT22;10818;50.830;6.524;2023-08-08T21:26:08;17.30;99.90
21318;DHT22;10818;50.830;6.524;2023-08-08T21:31:08;17.30;99.90
21318;DHT22;10818;50.830;6.524;2023-08-08T21:36:09;17.20;99.90
21318;DHT22;10818;50.830;6.524;2023-08-08T21:41:09;17.20;99.90
21318;DHT22;10818;50.830;6.524;2023-08-08T21:46:10;17.20;99.90
21318;DHT22;10818;50.830;6.524;2023-08-08T21:51:11;17.20;99.90
21318;DHT22;10818;50.830;6.524;2023-08-08T21:56:13;17.10;99.90
21318;DHT22;10818;50.830;6.524;2023-08-08T22:01:13;17.00;99.90
21318;DHT22;10818;50.830;6.524;2023-08-08T22:06:14;17.00;99.90
21318;DHT22;10818;50.830;6.524;2023-08-08T22:11:14;17.00;99.90
21318;DHT22;10818;50.830;6.524;2023-08-08T22:16:14;17.00;99.90
21318;DHT22;10818;50.830;6.524;2023-08-08T22:21:15;16.90;99.90
21318;DHT22;10818;50.830;6.524;2023-08-08T22:26:15;16.90;99.90
21318;DHT22;10818;50.830;6.524;2023-08-08T22:31:16;16.90;99.90
21318;DHT22;10818;50.830;6.524;2023-08-08T22:36:16;17.00;99.90
21318;DHT22;10818;50.830;6.524;2023-08-08T22:41:17;17.00;99.90
21318;DHT22;10818;50.830;6.524;2023-08-08T22:46:17;17.00;99.90
21318;DHT22;10818;50.830;6.524;2023-08-08T22:51:18;17.00;99.90
21318;DHT22;10818;50.830;6.524;2023-08-08T22:56:18;16.90;99.90
21318;DHT22;10818;50.830;6.524;2023-08-08T23:01:19;16.90;99.90
21318;DHT22;10818;50.830;6.524;2023-08-08T23:06:20;16.90;99.90
21318;DHT22;10818;50.830;6.524;2023-08-08T23:11:21;16.90;99.90
21318;DHT22;10818;50.830;6.524;2023-08-08T23:16:21;17.00;99.90
21318;DHT22;10818;50.830;6.524;2023-08-08T23:21:22;17.00;99.90
21318;DHT22;10818;50.830;6.524;2023-08-08T23:26:22;17.00;99.90
21318;DHT22;10818;50.830;6.524;2023-08-08T23:31:23;16.90;99.90
21318;DHT22;10818;50.830;6.524;2023-08-08T23:36:23;17.00;99.90
21318;DHT22;10818;50.830;6.524;2023-08-08T23:41:24;16.90;99.90
21318;DHT22;10818;50.830;6.524;2023-08-08T23:46:24;17.00;99.90
21318;DHT22;10818;50.830;6.524;2023-08-08T23:51:25;17.00;99.90
21318;DHT22;10818;50.830;6.524;2023-08-08T23:56:25;16.90;99.90
